4XCWC LLHZ-LLHZ

Flight info

Callsign 4XCWC
Flight time 0h 5m
Altitude 800
Route VFR
Aircraft C172/L-VD/A

Departure

Time 2026-04-22 17:10
Airport Herzliya Airport (LLHZ)

Arrival

Time 2026-04-22 17:15
Airport Herzliya Airport (LLHZ)
Time Latitude Longitude Altitude Speed Heading
2026-04-22 17:01 32.17881 34.83779 113 ft 0 kts 110°
2026-04-22 17:07 32.17892 34.83824 114 ft 0 kts 54°
2026-04-22 17:07 32.17892 34.83825 114 ft 1 kts 54°
2026-04-22 17:08 32.17915 34.83853 116 ft 6 kts 119°
2026-04-22 17:08 32.17920 34.83851 118 ft 3 kts 238°
2026-04-22 17:08 32.17918 34.83836 118 ft 0 kts 291°
2026-04-22 17:08 32.17920 34.83830 118 ft 9 kts 290°
2026-04-22 17:09 32.18008 34.83534 103 ft 66 kts 289°
2026-04-22 17:09 32.18177 34.82966 270 ft 74 kts 303°
2026-04-22 17:09 32.18587 34.82735 438 ft 70 kts 13°
2026-04-22 17:09 32.18829 34.82796 520 ft 75 kts 15°
2026-04-22 17:10 32.19193 34.83044 780 ft 71 kts 44°
2026-04-22 17:10 32.19176 34.83743 764 ft 110 kts 111°
2026-04-22 17:10 32.18767 34.84559 688 ft 125 kts 115°
2026-04-22 17:11 32.18157 34.85237 746 ft 120 kts 168°
2026-04-22 17:11 32.17491 34.84994 598 ft 85 kts 262°
2026-04-22 17:11 32.17659 34.84484 361 ft 65 kts 322°
2026-04-22 17:11 32.17860 34.83992 174 ft 70 kts 300°
2026-04-22 17:12 32.18008 34.83547 104 ft 52 kts 295°
2026-04-22 17:12 32.18145 34.83097 138 ft 69 kts 295°
2026-04-22 17:12 32.18470 34.82795 285 ft 70 kts 13°
2026-04-22 17:13 32.18785 34.82882 390 ft 74 kts 15°
2026-04-22 17:13 32.19263 34.83144 603 ft 83 kts 43°
2026-04-22 17:13 32.19195 34.83900 619 ft 114 kts 113°
2026-04-22 17:13 32.18823 34.84779 606 ft 117 kts 110°
2026-04-22 17:14 32.18292 34.85381 562 ft 108 kts 175°
2026-04-22 17:14 32.17703 34.85062 435 ft 88 kts 256°
2026-04-22 17:14 32.17724 34.84478 296 ft 65 kts 303°
2026-04-22 17:14 32.17867 34.83987 158 ft 64 kts 300°
2026-04-22 17:15 32.17965 34.83670 110 ft 54 kts 304°
2026-04-22 17:15 32.18046 34.83329 99 ft 8 kts 187°